createdAt,value
2018-08-30T00:04:11.945Z,11.22
2018-08-30T00:09:15.471Z,12.13
2018-08-30T00:14:18.989Z,12.43
2018-08-30T00:19:22.513Z,8.73
2018-08-30T00:24:25.992Z,9.45
2018-08-30T00:29:29.530Z,8.60
2018-08-30T00:34:33.023Z,9.23
2018-08-30T00:39:36.559Z,11.43
2018-08-30T00:44:40.030Z,8.60
2018-08-30T00:49:43.612Z,9.08
2018-08-30T00:54:47.283Z,8.48
2018-08-30T00:59:51.353Z,10.75
2018-08-30T01:04:54.930Z,9.80
2018-08-30T01:09:58.476Z,8.23
2018-08-30T01:15:02.234Z,9.33
2018-08-30T01:20:06.058Z,7.80
2018-08-30T01:25:10.150Z,11.25
2018-08-30T01:31:38.105Z,10.67
2018-08-30T01:36:43.218Z,9.73
2018-08-30T01:41:46.815Z,13.87
2018-08-30T01:46:56.765Z,15.95
2018-08-30T01:52:00.317Z,13.85
2018-08-30T01:57:03.870Z,12.82
2018-08-30T02:02:07.406Z,12.00
2018-08-30T02:07:11.159Z,14.75
2018-08-30T02:12:14.638Z,11.73
2018-08-30T02:17:18.148Z,14.28
2018-08-30T02:22:21.645Z,13.65
2018-08-30T02:27:25.243Z,16.35
2018-08-30T02:32:28.833Z,13.18
2018-08-30T02:37:32.358Z,18.57
2018-08-30T02:42:35.919Z,13.62
2018-08-30T02:47:39.523Z,11.55
2018-08-30T02:52:43.140Z,16.25
2018-08-30T02:57:46.678Z,18.45
2018-08-30T03:02:50.238Z,13.43
2018-08-30T03:07:53.785Z,14.07
2018-08-30T03:12:57.415Z,14.65
2018-08-30T03:18:01.000Z,16.37
2018-08-30T03:23:04.634Z,13.85
2018-08-30T03:28:08.142Z,13.32
2018-08-30T03:33:11.689Z,12.58
2018-08-30T03:38:15.301Z,13.60
2018-08-30T03:43:18.821Z,13.32
2018-08-30T03:48:22.531Z,16.65
2018-08-30T03:53:32.257Z,15.18
2018-08-30T03:58:35.769Z,16.75
2018-08-30T04:03:39.252Z,14.73
2018-08-30T04:08:42.808Z,16.85
2018-08-30T04:13:46.491Z,17.37
2018-08-30T04:18:54.154Z,15.35
2018-08-30T04:23:57.826Z,14.98
2018-08-30T04:29:02.423Z,14.33
2018-08-30T04:34:06.125Z,18.45
2018-08-30T04:39:09.677Z,15.90
2018-08-30T04:44:13.278Z,16.37
2018-08-30T04:49:16.810Z,15.72
2018-08-30T04:54:20.350Z,15.35
2018-08-30T04:59:23.887Z,15.10
2018-08-30T05:04:27.480Z,18.67
2018-08-30T05:09:31.089Z,19.35
2018-08-30T05:14:34.573Z,16.07
2018-08-30T05:19:38.109Z,15.83
2018-08-30T05:24:41.662Z,16.10
2018-08-30T05:29:45.313Z,16.00
2018-08-30T05:34:48.841Z,21.45
2018-08-30T05:39:52.454Z,17.12
2018-08-30T05:44:55.993Z,17.12
2018-08-30T05:49:59.475Z,17.87
2018-08-30T05:55:03.445Z,19.67
2018-08-30T06:00:07.740Z,18.90
2018-08-30T06:05:11.381Z,24.32
2018-08-30T06:10:14.900Z,18.93
2018-08-30T06:15:18.418Z,22.80
2018-08-30T06:20:21.959Z,22.07
2018-08-30T06:25:25.842Z,22.52
2018-08-30T06:30:29.612Z,20.90
2018-08-30T06:35:33.297Z,21.48
2018-08-30T06:40:36.825Z,23.30
2018-08-30T06:45:40.380Z,24.30
2018-08-30T06:50:44.002Z,19.55
2018-08-30T06:55:47.822Z,29.82
2018-08-30T07:00:51.358Z,25.30
2018-08-30T07:05:54.926Z,25.62
2018-08-30T07:10:58.427Z,28.17
2018-08-30T07:16:08.499Z,25.55
2018-08-30T07:21:12.190Z,28.15
2018-08-30T07:26:15.715Z,30.82
2018-08-30T07:31:19.470Z,30.88
2018-08-30T07:36:23.095Z,27.50
2018-08-30T07:41:26.580Z,30.40
2018-08-30T07:46:30.178Z,30.57
2018-08-30T07:51:33.809Z,29.35
2018-08-30T07:56:37.418Z,29.45
2018-08-30T08:01:41.394Z,29.32
2018-08-30T08:06:45.062Z,30.05
2018-08-30T08:11:48.659Z,31.27
2018-08-30T08:16:52.156Z,33.45
2018-08-30T08:21:56.068Z,34.05
2018-08-30T08:27:00.931Z,30.60
2018-08-30T08:32:04.533Z,34.45
2018-08-30T08:37:09.061Z,29.07
2018-08-30T08:42:12.583Z,30.08
2018-08-30T08:47:16.574Z,26.75
2018-08-30T08:52:20.184Z,25.32
2018-08-30T08:57:23.754Z,24.90
2018-08-30T09:02:27.299Z,27.25
2018-08-30T09:07:30.849Z,27.95
2018-08-30T09:12:34.571Z,26.27
2018-08-30T09:17:38.240Z,24.07
2018-08-30T09:22:41.793Z,23.90
2018-08-30T09:27:45.353Z,23.15
2018-08-30T09:32:48.970Z,19.82
2018-08-30T09:37:52.526Z,21.65
2018-08-30T09:42:56.043Z,19.95
2018-08-30T09:47:59.691Z,18.10
2018-08-30T09:53:03.206Z,20.88
2018-08-30T09:58:06.811Z,20.88
2018-08-30T10:03:10.506Z,22.20
2018-08-30T10:08:13.988Z,20.77
2018-08-30T10:13:17.494Z,12.10
2018-08-30T10:18:21.024Z,8.58
2018-08-30T10:23:24.578Z,9.48
2018-08-30T10:28:28.176Z,10.40
2018-08-30T10:33:31.694Z,11.67
2018-08-30T10:38:35.249Z,10.00
2018-08-30T10:43:38.773Z,9.18
2018-08-30T10:48:42.898Z,10.63
2018-08-30T10:53:46.465Z,10.55
2018-08-30T10:58:50.100Z,10.33
2018-08-30T11:03:53.835Z,9.55
2018-08-30T11:08:57.345Z,10.72
2018-08-30T11:14:00.888Z,9.88
2018-08-30T11:19:04.459Z,8.53
2018-08-30T11:24:08.478Z,6.15
2018-08-30T11:29:12.027Z,4.67
2018-08-30T11:34:15.702Z,6.87
2018-08-30T11:39:19.221Z,8.03
2018-08-30T11:44:22.808Z,6.55
2018-08-30T11:49:26.353Z,4.72
2018-08-30T11:54:29.842Z,4.33
2018-08-30T11:59:33.393Z,4.12
2018-08-30T12:04:37.866Z,3.58
2018-08-30T12:09:41.552Z,3.55
2018-08-30T12:14:45.115Z,5.55
2018-08-30T12:19:48.643Z,6.08
2018-08-30T12:24:52.158Z,6.90
2018-08-30T12:29:55.691Z,7.67
2018-08-30T12:34:59.315Z,8.00
2018-08-30T12:40:03.196Z,5.03
2018-08-30T12:45:06.683Z,5.05
2018-08-30T12:50:10.281Z,6.50
2018-08-30T12:55:13.727Z,3.95
2018-08-30T13:00:17.441Z,5.70
2018-08-30T13:05:21.096Z,6.03
2018-08-30T13:10:24.712Z,4.45
2018-08-30T13:15:28.284Z,6.10
2018-08-30T13:20:31.876Z,6.00
2018-08-30T13:25:35.456Z,6.97
2018-08-30T13:30:39.046Z,9.00
2018-08-30T13:35:42.660Z,9.45
2018-08-30T13:40:46.352Z,12.23
2018-08-30T13:45:49.793Z,11.30
2018-08-30T13:50:53.431Z,11.38
2018-08-30T13:55:56.840Z,14.83
2018-08-30T14:01:00.836Z,12.07
2018-08-30T14:06:03.745Z,14.00
2018-08-30T14:11:13.693Z,13.65
2018-08-30T14:16:17.055Z,13.40
2018-08-30T14:21:21.459Z,14.00
2018-08-30T14:26:25.092Z,12.90
2018-08-30T14:31:28.522Z,12.28
2018-08-30T14:36:32.066Z,11.95
2018-08-30T14:41:35.520Z,13.72
2018-08-30T14:46:45.441Z,15.08
2018-08-30T14:51:49.057Z,15.75
2018-08-30T14:56:52.616Z,14.93
2018-08-30T15:01:56.170Z,17.60
2018-08-30T15:06:59.658Z,14.15
2018-08-30T15:12:03.259Z,13.85
2018-08-30T15:17:06.726Z,13.75
2018-08-30T15:22:10.410Z,12.78
2018-08-30T15:27:13.947Z,15.23
2018-08-30T15:32:17.396Z,13.70
2018-08-30T15:37:20.882Z,13.38
2018-08-30T15:42:24.492Z,12.23
2018-08-30T15:47:28.026Z,9.58
2018-08-30T15:52:31.490Z,8.08
2018-08-30T15:57:35.078Z,6.62
2018-08-30T16:02:38.555Z,8.08
2018-08-30T16:07:42.590Z,10.03
2018-08-30T16:12:46.066Z,7.90
2018-08-30T16:17:50.083Z,8.83
2018-08-30T16:23:12.459Z,8.55
2018-08-30T16:28:16.010Z,8.35
2018-08-30T16:33:19.527Z,10.00
2018-08-30T16:38:23.256Z,7.00
2018-08-30T16:43:26.704Z,7.72
2018-08-30T16:48:30.266Z,12.07
2018-08-30T16:53:33.772Z,9.60
2018-08-30T16:58:37.320Z,7.45
2018-08-30T17:03:40.737Z,6.85
2018-08-30T17:08:44.382Z,6.55
2018-08-30T17:13:47.857Z,6.83
2018-08-30T17:18:53.213Z,7.92
2018-08-30T17:23:57.202Z,9.48
2018-08-30T17:29:00.752Z,8.00
2018-08-30T17:34:04.493Z,10.05
2018-08-30T17:39:09.724Z,15.68
2018-08-30T17:44:13.408Z,10.03
2018-08-30T17:49:17.821Z,12.37
2018-08-30T17:54:21.627Z,10.28
2018-08-30T17:59:25.228Z,11.85
2018-08-30T18:04:28.858Z,9.08
2018-08-30T18:09:32.417Z,9.18
2018-08-30T18:14:35.977Z,8.43
2018-08-30T18:19:39.589Z,12.20
2018-08-30T18:24:43.108Z,6.95
2018-08-30T18:29:46.851Z,8.28
2018-08-30T18:34:50.448Z,9.93
2018-08-30T18:39:54.113Z,8.23
2018-08-30T18:44:57.666Z,7.58
2018-08-30T18:50:01.346Z,9.00
2018-08-30T18:55:05.187Z,7.45
2018-08-30T19:00:08.989Z,6.37
2018-08-30T19:05:12.491Z,9.27
2018-08-30T19:10:15.956Z,7.57
2018-08-30T19:15:24.621Z,7.00
2018-08-30T19:20:28.230Z,6.28
2018-08-30T19:25:31.855Z,7.22
2018-08-30T19:30:35.468Z,8.08
2018-08-30T19:35:44.351Z,7.42
2018-08-30T19:40:53.043Z,8.95
2018-08-30T19:45:56.546Z,8.70
2018-08-30T19:51:00.111Z,8.60
2018-08-30T19:56:03.591Z,7.53
2018-08-30T20:01:07.318Z,8.03
2018-08-30T20:06:10.810Z,7.53
2018-08-30T20:11:14.410Z,8.73
2018-08-30T20:16:17.925Z,7.65
2018-08-30T20:21:21.518Z,9.13
2018-08-30T20:26:25.426Z,7.33
2018-08-30T20:31:29.090Z,8.55
2018-08-30T20:36:32.616Z,11.80
2018-08-30T20:41:36.217Z,7.60
2018-08-30T20:46:39.905Z,7.10
2018-08-30T20:51:43.385Z,5.28
2018-08-30T20:56:47.107Z,5.17
2018-08-30T21:01:50.798Z,6.73
2018-08-30T21:06:54.381Z,8.57
2018-08-30T21:11:57.926Z,6.22
2018-08-30T21:17:01.391Z,6.87
2018-08-30T21:22:04.918Z,7.97
2018-08-30T21:27:08.437Z,6.03
2018-08-30T21:32:12.083Z,7.85
2018-08-30T21:37:15.806Z,8.40
2018-08-30T21:42:19.383Z,7.72
2018-08-30T21:47:22.956Z,7.78
2018-08-30T21:52:26.524Z,6.08
2018-08-30T21:57:30.078Z,9.30
2018-08-30T22:02:33.570Z,6.72
2018-08-30T22:07:37.082Z,7.90
2018-08-30T22:12:40.625Z,5.70
2018-08-30T22:17:44.178Z,6.50
2018-08-30T22:22:47.698Z,6.60
2018-08-30T22:27:51.258Z,9.10
2018-08-30T22:32:54.827Z,8.50
2018-08-30T22:37:58.377Z,7.87
2018-08-30T22:43:01.914Z,8.03
2018-08-30T22:48:05.544Z,7.55
2018-08-30T22:53:09.066Z,8.80
2018-08-30T22:58:12.553Z,8.13
2018-08-30T23:03:16.209Z,7.90
2018-08-30T23:08:19.755Z,6.80
2018-08-30T23:13:23.257Z,7.72
2018-08-30T23:18:26.874Z,5.62
2018-08-30T23:23:31.057Z,8.88
2018-08-30T23:28:34.622Z,8.90
2018-08-30T23:33:38.203Z,7.00
2018-08-30T23:38:41.773Z,8.68
2018-08-30T23:43:45.253Z,8.75
2018-08-30T23:48:48.842Z,9.58
2018-08-30T23:53:52.342Z,7.13
2018-08-30T23:59:07.059Z,7.23
